Time;durP1;ratioP1;P1;durP2;ratioP2;P2;SDS_P1;SDS_P2;PMS_P1;PMS_P2;Temp;Humidity;BMP_temperature;BMP_pressure;BME280_temperature;BME280_humidity;BME280_pressure;Samples;Min_cycle;Max_cycle;Signal;HPM_P1;HPM_P2
2023/04/06 00:01:23;;;;;;;16.87;10.67;;;;;;;0.48;92.92;94375.50;5110705;28;20192;-78
2023/04/06 00:03:50;;;;;;;20.63;11.27;;;;;;;0.50;93.67;94380.44;5110818;28;20225;-78
2023/04/06 00:06:17;;;;;;;18.87;11.40;;;;;;;0.51;93.62;94374.38;5110713;28;20203;-78
2023/04/06 00:08:44;;;;;;;17.83;11.53;;;;;;;0.57;93.32;94368.63;5107785;28;20194;-77
2023/04/06 00:11:11;;;;;;;15.57;10.50;;;;;;;0.57;92.78;94356.63;5110224;28;20300;-78
2023/04/06 00:13:38;;;;;;;17.37;10.93;;;;;;;0.52;93.29;94351.19;5110697;28;20192;-78
2023/04/06 00:16:07;;;;;;;19.20;12.23;;;;;;;0.53;93.59;94352.00;5110567;28;20196;-78
2023/04/06 00:18:34;;;;;;;16.57;10.93;;;;;;;0.53;92.72;94344.34;5110501;28;20192;-78
2023/04/06 00:21:00;;;;;;;14.97;10.60;;;;;;;0.51;93.55;94341.97;5109887;28;20186;-79
2023/04/06 00:23:27;;;;;;;18.47;11.60;;;;;;;0.52;93.66;94347.84;5110426;28;20192;-79
2023/04/06 00:25:55;;;;;;;16.17;10.43;;;;;;;0.52;93.72;94350.41;5110626;27;20251;-79
2023/04/06 00:28:25;;;;;;;17.10;11.23;;;;;;;0.53;93.57;94341.78;5104846;28;20200;-79
2023/04/06 00:30:52;;;;;;;17.77;11.33;;;;;;;0.54;93.77;94343.38;5108150;28;20640;-79
2023/04/06 00:33:20;;;;;;;13.97;9.70;;;;;;;0.58;93.51;94335.22;5110332;28;20188;-78
2023/04/06 00:35:47;;;;;;;15.40;10.47;;;;;;;0.67;93.28;94341.09;5114479;28;20200;-79
2023/04/06 00:38:15;;;;;;;18.60;11.17;;;;;;;0.67;92.85;94337.72;5111237;28;20188;-78
2023/04/06 00:40:44;;;;;;;17.17;10.87;;;;;;;0.68;92.85;94331.66;5114821;28;20253;-78
2023/04/06 00:43:11;;;;;;;17.60;11.17;;;;;;;0.58;93.56;94324.97;5114800;28;20199;-78
2023/04/06 00:45:39;;;;;;;19.37;10.97;;;;;;;0.54;93.08;94321.19;5107432;27;20236;-78
2023/04/06 00:48:06;;;;;;;16.40;10.97;;;;;;;0.54;93.41;94317.81;5111005;28;20222;-78
2023/04/06 00:50:36;;;;;;;16.33;10.67;;;;;;;0.70;93.31;94330.53;5112893;28;20298;-78
2023/04/06 00:53:03;;;;;;;16.23;10.50;;;;;;;0.63;92.68;94316.03;5114199;28;20195;-78
2023/04/06 00:55:30;;;;;;;15.20;9.80;;;;;;;0.68;92.01;94319.69;5113205;28;20197;-79
2023/04/06 00:57:59;;;;;;;15.37;10.20;;;;;;;0.69;92.58;94336.63;5114064;28;20195;-78
2023/04/06 01:00:26;;;;;;;13.30;9.20;;;;;;;0.70;92.48;94329.72;5113403;28;20185;-78
2023/04/06 01:02:53;;;;;;;16.13;10.73;;;;;;;0.65;93.04;94326.88;5114287;28;20196;-78
2023/04/06 01:05:20;;;;;;;15.17;9.50;;;;;;;0.68;92.83;94324.00;5114792;28;20214;-78
2023/04/06 01:07:48;;;;;;;14.37;9.10;;;;;;;0.69;92.90;94320.50;5114714;28;20213;-79
2023/04/06 01:10:24;;;;;;;15.07;9.97;;;;;;;0.63;92.66;94316.84;5114277;28;20188;-78
2023/04/06 01:12:51;;;;;;;14.20;9.77;;;;;;;0.54;93.22;94320.38;5114442;28;20681;-78
2023/04/06 01:15:18;;;;;;;14.37;9.73;;;;;;;0.55;93.32;94315.09;5114430;28;20200;-79
2023/04/06 01:17:45;;;;;;;15.60;10.17;;;;;;;0.61;93.04;94315.41;5113758;28;20201;-79
2023/04/06 01:20:11;;;;;;;16.47;10.17;;;;;;;0.70;93.06;94320.31;5114781;28;20570;-79
2023/04/06 01:22:40;;;;;;;16.23;10.67;;;;;;;0.73;93.17;94314.88;5114190;28;20189;-79
2023/04/06 01:25:08;;;;;;;15.60;9.93;;;;;;;0.80;93.03;94315.00;5114408;27;20689;-80
2023/04/06 01:27:35;;;;;;;14.23;9.73;;;;;;;0.79;92.40;94315.94;5114279;28;20196;-79
2023/04/06 01:30:02;;;;;;;13.63;9.10;;;;;;;0.78;92.53;94315.16;5111755;28;20268;-80
2023/04/06 01:32:29;;;;;;;17.90;11.40;;;;;;;0.81;92.87;94314.81;5113855;28;20207;-79
2023/04/06 01:34:56;;;;;;;17.17;10.77;;;;;;;0.70;92.85;94309.28;5113824;28;20188;-78
2023/04/06 01:37:23;;;;;;;16.37;9.90;;;;;;;0.83;92.67;94302.69;5113576;28;20211;-79
2023/04/06 01:39:51;;;;;;;13.73;9.43;;;;;;;0.76;92.43;94300.94;5113973;28;20191;-78
2023/04/06 01:42:18;;;;;;;14.43;9.13;;;;;;;0.78;92.20;94299.03;5114397;28;20214;-80
2023/04/06 01:44:45;;;;;;;14.33;10.03;;;;;;;0.80;92.04;94308.13;5114554;28;20268;-79
2023/04/06 01:47:12;;;;;;;18.40;11.20;;;;;;;0.87;92.75;94300.56;5114497;28;20200;-79
2023/04/06 01:49:38;;;;;;;17.77;10.40;;;;;;;0.96;92.59;94307.22;5113980;28;20585;-79
2023/04/06 01:52:06;;;;;;;15.90;9.17;;;;;;;0.94;92.36;94306.63;5113914;28;20200;-80
2023/04/06 01:54:32;;;;;;;16.87;10.53;;;;;;;0.96;91.90;94297.81;5114709;28;20190;-80
2023/04/06 01:57:01;;;;;;;15.77;9.77;;;;;;;0.97;92.28;94307.09;5114289;28;20667;-79
2023/04/06 01:59:28;;;;;;;16.97;10.17;;;;;;;0.92;92.13;94288.09;5114251;28;20188;-79
2023/04/06 02:01:54;;;;;;;16.57;10.47;;;;;;;1.01;91.72;94297.31;5113501;28;20549;-80
2023/04/06 02:04:21;;;;;;;15.27;9.43;;;;;;;0.91;92.54;94289.84;5113486;28;20291;-79
2023/04/06 02:06:48;;;;;;;12.57;8.87;;;;;;;0.89;92.47;94288.44;5113847;28;20188;-79
2023/04/06 02:09:15;;;;;;;15.03;9.37;;;;;;;0.89;92.84;94293.53;5113893;28;20200;-79
2023/04/06 02:11:42;;;;;;;12.93;8.83;;;;;;;0.83;92.52;94287.34;5113856;28;20744;-79
2023/04/06 02:14:10;;;;;;;13.40;8.90;;;;;;;0.93;92.58;94285.34;5113972;28;20192;-79
2023/04/06 02:16:37;;;;;;;14.43;9.30;;;;;;;0.92;92.33;94276.09;5113415;28;20200;-81
2023/04/06 02:19:04;;;;;;;13.97;9.17;;;;;;;0.91;92.39;94291.59;5114917;28;20188;-81
2023/04/06 02:21:31;;;;;;;13.03;9.00;;;;;;;0.64;92.91;94285.19;5114403;28;20184;-79
2023/04/06 02:23:57;;;;;;;14.70;9.40;;;;;;;0.84;92.64;94277.88;5114244;28;20207;-80
2023/04/06 02:26:24;;;;;;;13.77;9.23;;;;;;;0.81;93.31;94285.91;5115232;28;20612;-80
2023/04/06 02:28:51;;;;;;;13.90;9.43;;;;;;;0.82;93.34;94284.94;5113988;28;20193;-81
2023/04/06 02:31:19;;;;;;;13.93;9.40;;;;;;;0.85;93.76;94282.03;5113264;28;20190;-79
2023/04/06 02:33:46;;;;;;;15.50;8.80;;;;;;;0.87;93.24;94282.66;5110271;28;20188;-79
2023/04/06 02:36:13;;;;;;;14.40;9.13;;;;;;;0.82;93.24;94282.38;5113272;28;20210;-79
2023/04/06 02:38:40;;;;;;;11.87;8.70;;;;;;;0.81;93.17;94284.13;5113318;28;20189;-79
2023/04/06 02:41:06;;;;;;;14.97;9.07;;;;;;;0.87;93.10;94285.22;5112450;28;20184;-79
2023/04/06 02:43:34;;;;;;;14.00;8.93;;;;;;;0.96;92.38;94292.69;5112789;28;20192;-78
2023/04/06 02:46:01;;;;;;;13.50;8.60;;;;;;;1.01;92.03;94292.97;5112410;28;20224;-78
2023/04/06 02:48:29;;;;;;;13.67;8.90;;;;;;;1.03;91.72;94295.38;5112721;28;20225;-79
2023/04/06 02:50:56;;;;;;;17.87;11.00;;;;;;;0.94;91.89;94286.97;5113165;28;20194;-79
2023/04/06 02:53:23;;;;;;;16.40;9.77;;;;;;;1.03;92.44;94296.19;5112861;28;20198;-79
2023/04/06 02:55:50;;;;;;;17.70;10.67;;;;;;;1.04;92.40;94290.09;5112523;28;20195;-79
2023/04/06 02:58:17;;;;;;;16.00;9.80;;;;;;;1.02;92.50;94297.13;5111958;28;20203;-79
2023/04/06 03:00:44;;;;;;;15.83;9.77;;;;;;;1.04;92.17;94290.09;5109303;28;20201;-79
2023/04/06 03:03:11;;;;;;;14.47;10.13;;;;;;;1.09;92.60;94298.06;5112713;28;20207;-78
2023/04/06 03:05:39;;;;;;;19.90;11.07;;;;;;;1.05;92.18;94289.13;5111860;28;20827;-79
2023/04/06 03:08:06;;;;;;;14.37;9.23;;;;;;;1.08;92.19;94282.88;5110322;28;20188;-80
2023/04/06 03:10:33;;;;;;;14.10;9.27;;;;;;;1.05;91.35;94268.66;5112223;28;20188;-79
2023/04/06 03:13:00;;;;;;;14.20;9.17;;;;;;;1.09;91.52;94282.72;5112081;28;20187;-81
2023/04/06 03:15:27;;;;;;;14.07;9.63;;;;;;;1.10;91.85;94291.97;5108338;28;20218;-81
2023/04/06 03:17:53;;;;;;;15.60;10.10;;;;;;;1.11;91.91;94277.41;5112307;28;20196;-81
2023/04/06 03:20:20;;;;;;;17.10;10.53;;;;;;;1.15;92.17;94299.91;5113156;28;20190;-81
2023/04/06 03:22:48;;;;;;;16.87;10.80;;;;;;;1.13;91.35;94275.47;5112791;28;20211;-81
2023/04/06 03:25:16;;;;;;;17.47;10.63;;;;;;;1.21;91.78;94282.31;5111050;28;20218;-82
2023/04/06 03:27:45;;;;;;;17.43;11.10;;;;;;;1.22;91.57;94283.91;5100531;28;20208;-82
2023/04/06 03:30:12;;;;;;;15.37;10.33;;;;;;;1.18;91.15;94283.47;5105631;28;20204;-81
2023/04/06 03:32:39;;;;;;;14.93;10.27;;;;;;;1.20;91.22;94284.09;5092343;28;20658;-81
2023/04/06 03:35:06;;;;;;;17.57;10.13;;;;;;;1.21;90.97;94278.00;5107127;28;20270;-82
2023/04/06 03:37:36;;;;;;;15.97;10.23;;;;;;;1.22;91.13;94279.56;5111962;28;20585;-80
2023/04/06 03:40:06;;;;;;;17.47;10.53;;;;;;;1.10;91.16;94276.63;5111291;28;20244;-80
2023/04/06 03:42:33;;;;;;;15.63;9.97;;;;;;;1.11;91.44;94279.97;5102506;28;20644;-81
2023/04/06 03:45:00;;;;;;;17.83;10.43;;;;;;;1.02;91.62;94261.31;5112009;28;20633;-81
2023/04/06 03:47:27;;;;;;;15.53;9.43;;;;;;;1.14;90.79;94272.75;5111130;28;20274;-81
2023/04/06 03:49:55;;;;;;;14.73;9.77;;;;;;;1.10;91.39;94268.94;5111958;28;20184;-83
2023/04/06 03:52:22;;;;;;;15.57;10.40;;;;;;;1.09;91.63;94274.25;5110775;27;20294;-77
2023/04/06 03:54:49;;;;;;;19.50;10.87;;;;;;;1.18;91.32;94278.34;5115001;28;20256;-80
2023/04/06 03:57:18;;;;;;;18.17;10.93;;;;;;;1.21;91.17;94277.19;5117796;28;20194;-86
2023/04/06 03:59:44;;;;;;;19.17;11.70;;;;;;;1.09;91.82;94277.59;5121022;28;20206;-86
2023/04/06 04:02:11;;;;;;;20.10;12.37;;;;;;;1.06;91.67;94267.72;5115485;28;20200;-86
2023/04/06 04:04:39;;;;;;;20.20;11.47;;;;;;;1.01;92.49;94274.31;5114507;28;20663;-86
2023/04/06 04:07:06;;;;;;;30.47;13.37;;;;;;;0.88;94.09;94258.69;5112229;28;20233;-86
2023/04/06 04:09:33;;;;;;;27.43;14.47;;;;;;;1.15;95.45;94276.91;5112238;28;20194;-86
2023/04/06 04:11:59;;;;;;;26.00;13.80;;;;;;;1.06;95.80;94270.25;5109894;28;20665;-87
2023/04/06 04:14:28;;;;;;;26.43;13.10;;;;;;;1.21;96.61;94277.19;5111932;28;20196;-86
2023/04/06 04:16:55;;;;;;;25.23;13.57;;;;;;;1.24;96.66;94281.97;5112260;28;20277;-86
2023/04/06 04:19:21;;;;;;;27.20;15.47;;;;;;;1.16;97.43;94270.03;5112377;28;20194;-87
2023/04/06 04:21:48;;;;;;;29.73;15.17;;;;;;;1.22;97.92;94277.03;5100824;28;20200;-88
2023/04/06 04:24:15;;;;;;;22.83;13.07;;;;;;;1.23;97.03;94281.19;5118189;28;20222;-87
2023/04/06 04:26:42;;;;;;;19.77;11.70;;;;;;;1.26;93.90;94274.94;5111825;28;20595;-89
2023/04/06 04:29:09;;;;;;;19.27;11.77;;;;;;;1.29;92.59;94277.16;5111933;28;20206;-87
2023/04/06 04:31:37;;;;;;;18.47;10.40;;;;;;;1.22;91.81;94266.78;5111196;28;20291;-88
2023/04/06 04:34:06;;;;;;;20.17;11.73;;;;;;;1.31;91.51;94268.31;5112061;28;20195;-88
2023/04/06 04:36:33;;;;;;;12.17;8.13;;;;;;;1.30;91.47;94283.88;5112442;28;20222;-87
2023/04/06 04:39:00;;;;;;;19.27;10.97;;;;;;;1.29;90.96;94290.75;5112094;28;20223;-87
2023/04/06 04:41:27;;;;;;;17.40;9.50;;;;;;;1.30;91.25;94291.53;5104027;28;20284;-87
2023/04/06 04:43:54;;;;;;;18.73;10.97;;;;;;;1.22;91.15;94273.66;5106517;28;20218;-86
2023/04/06 04:46:21;;;;;;;16.97;10.53;;;;;;;1.22;91.54;94282.13;5115562;28;20221;-86
2023/04/06 04:48:49;;;;;;;19.50;11.43;;;;;;;1.16;91.89;94285.38;5112886;28;20261;-85
2023/04/06 04:51:16;;;;;;;14.57;8.97;;;;;;;1.23;91.89;94278.63;5110846;28;20679;-83
2023/04/06 04:53:43;;;;;;;20.77;11.50;;;;;;;1.33;91.45;94284.28;5111244;28;20214;-85
2023/04/06 04:59:12;;;;;;;21.63;12.67;;;;;;;1.33;90.90;94268.16;5098526;28;20371;-85
2023/04/06 05:01:40;;;;;;;21.17;11.90;;;;;;;1.41;91.17;94278.34;5108555;28;20209;-83
2023/04/06 05:04:08;;;;;;;21.53;11.60;;;;;;;1.35;91.67;94281.59;5106763;28;20195;-81
2023/04/06 05:06:35;;;;;;;22.27;13.10;;;;;;;1.35;91.81;94286.69;5093274;28;20223;-83
2023/04/06 05:09:02;;;;;;;22.53;12.20;;;;;;;1.34;91.72;94272.31;5104617;28;20189;-83
2023/04/06 05:11:29;;;;;;;17.30;11.37;;;;;;;1.41;91.31;94271.47;5110834;28;20210;-83
2023/04/06 05:13:56;;;;;;;19.30;11.90;;;;;;;1.18;92.22;94249.41;5111028;28;20704;-83
2023/04/06 05:16:22;;;;;;;16.33;10.50;;;;;;;1.33;92.25;94268.94;5110389;28;20218;-83
2023/04/06 05:18:50;;;;;;;17.87;11.10;;;;;;;1.32;92.26;94266.56;5114878;28;20194;-82
2023/04/06 05:21:18;;;;;;;15.17;9.90;;;;;;;1.33;92.36;94278.41;5115117;28;20297;-81
2023/04/06 05:23:45;;;;;;;15.70;10.27;;;;;;;1.24;92.98;94276.88;5114506;28;20196;-82
2023/04/06 05:26:12;;;;;;;17.37;11.07;;;;;;;1.34;93.15;94274.88;5104294;28;20242;-83
2023/04/06 05:28:39;;;;;;;20.63;11.83;;;;;;;1.31;93.34;94263.22;5113825;28;20192;-83
2023/04/06 05:31:06;;;;;;;20.93;11.93;;;;;;;1.42;93.13;94278.16;5114899;28;20191;-82
2023/04/06 05:33:33;;;;;;;16.37;10.40;;;;;;;1.34;93.41;94282.53;5114065;28;20190;-79
2023/04/06 05:36:00;;;;;;;15.97;10.20;;;;;;;1.27;94.35;94261.19;5113276;28;20183;-79
2023/04/06 05:38:29;;;;;;;19.23;11.87;;;;;;;1.23;94.76;94276.06;5114389;27;20200;-80
2023/04/06 05:40:56;;;;;;;22.80;13.83;;;;;;;1.29;95.40;94272.81;5113899;28;20203;-79
2023/04/06 05:43:23;;;;;;;26.67;13.20;;;;;;;1.22;95.78;94265.97;5113769;28;20669;-79
2023/04/06 05:45:50;;;;;;;23.10;13.57;;;;;;;1.34;95.28;94262.88;5110253;28;20207;-80
2023/04/06 05:48:16;;;;;;;23.17;13.60;;;;;;;1.42;95.31;94269.69;5113548;28;20226;-80
2023/04/06 05:50:43;;;;;;;22.43;13.53;;;;;;;1.41;95.83;94265.53;5113626;28;20199;-81
2023/04/06 05:53:10;;;;;;;22.67;13.27;;;;;;;1.46;95.40;94266.63;5113639;28;20734;-80
2023/04/06 05:55:38;;;;;;;23.63;13.73;;;;;;;1.47;95.30;94270.75;5112845;28;20211;-80
2023/04/06 05:58:05;;;;;;;22.77;13.63;;;;;;;1.51;95.34;94254.09;5114197;28;20218;-79
2023/04/06 06:00:32;;;;;;;24.20;14.60;;;;;;;1.67;94.60;94261.63;5113988;28;20199;-81
2023/04/06 06:02:59;;;;;;;28.30;16.90;;;;;;;1.66;94.81;94264.38;5113590;28;20193;-79
2023/04/06 06:05:26;;;;;;;28.57;15.10;;;;;;;1.68;95.14;94259.84;5113352;27;20199;-80
2023/04/06 06:07:53;;;;;;;29.67;17.13;;;;;;;1.68;95.64;94265.78;5113662;28;20209;-79
2023/04/06 06:10:20;;;;;;;29.57;17.43;;;;;;;1.68;95.36;94260.66;5113226;28;20689;-80
2023/04/06 06:12:48;;;;;;;23.73;15.17;;;;;;;1.68;95.80;94254.75;5112953;28;20192;-81
2023/04/06 06:15:15;;;;;;;22.20;13.33;;;;;;;1.77;96.03;94261.38;5113625;28;20218;-80
2023/04/06 06:17:42;;;;;;;23.40;13.80;;;;;;;1.64;95.90;94250.94;5114232;28;20283;-80
2023/04/06 06:20:10;;;;;;;23.83;15.00;;;;;;;1.65;96.33;94252.53;5113941;28;20192;-81
2023/04/06 06:22:36;;;;;;;25.63;15.40;;;;;;;1.82;96.19;94250.63;5113972;28;20194;-80
2023/04/06 06:25:04;;;;;;;25.30;15.17;;;;;;;1.95;95.57;94261.06;5114067;28;20214;-80
2023/04/06 06:27:30;;;;;;;23.87;14.17;;;;;;;1.88;95.13;94257.59;5112597;28;20219;-80
2023/04/06 06:29:59;;;;;;;25.23;13.77;;;;;;;1.90;95.50;94256.47;5112896;28;20193;-80
2023/04/06 06:32:26;;;;;;;21.17;13.67;;;;;;;2.00;95.31;94259.56;5112580;28;20200;-80
2023/04/06 06:34:52;;;;;;;27.23;14.57;;;;;;;2.05;94.83;94264.94;5113095;28;20188;-80
2023/04/06 06:37:19;;;;;;;26.00;14.93;;;;;;;2.02;94.60;94262.72;5112238;28;20199;-80
2023/04/06 06:39:46;;;;;;;23.27;14.07;;;;;;;1.88;94.79;94258.38;5113149;28;20291;-80
2023/04/06 06:42:13;;;;;;;24.77;14.60;;;;;;;1.76;95.24;94264.13;5112995;28;20204;-81
2023/04/06 06:44:40;;;;;;;24.33;13.07;;;;;;;1.77;95.71;94263.94;5113127;28;20299;-80
2023/04/06 06:47:08;;;;;;;27.73;14.70;;;;;;;1.89;96.15;94256.63;5113004;28;20220;-80
2023/04/06 06:49:35;;;;;;;24.47;13.67;;;;;;;1.97;95.62;94261.66;5093670;28;20224;-81
2023/04/06 06:52:02;;;;;;;25.60;14.43;;;;;;;2.12;95.22;94265.03;5111520;27;20192;-81
2023/04/06 06:54:29;;;;;;;23.07;14.37;;;;;;;2.19;94.37;94264.16;5109720;28;20212;-81
2023/04/06 06:56:56;;;;;;;19.57;12.50;;;;;;;2.22;93.08;94276.63;5101870;28;20302;-82
2023/04/06 06:59:23;;;;;;;23.07;13.40;;;;;;;2.18;93.28;94262.59;5107001;28;20203;-79
2023/04/06 07:01:51;;;;;;;23.37;13.50;;;;;;;2.29;94.19;94269.84;5109906;28;20211;-88
2023/04/06 07:04:19;;;;;;;24.40;14.00;;;;;;;2.41;93.77;94270.19;5113581;28;20191;-86
2023/04/06 07:06:46;;;;;;;25.33;14.80;;;;;;;2.34;93.59;94268.50;5113392;28;20243;-85
2023/04/06 07:09:13;;;;;;;26.13;13.53;;;;;;;2.46;93.33;94265.31;5116150;28;20192;-84
2023/04/06 07:11:40;;;;;;;24.60;12.30;;;;;;;2.52;92.87;94264.59;5115028;28;20192;-87
2023/04/06 07:14:07;;;;;;;18.57;12.30;;;;;;;2.62;92.65;94269.47;5111870;28;20275;-86
2023/04/06 07:16:34;;;;;;;22.20;12.60;;;;;;;2.67;92.13;94273.06;5112209;28;20543;-88
2023/04/06 07:19:01;;;;;;;23.60;13.60;;;;;;;2.52;92.30;94258.66;5112730;28;20578;-86
2023/04/06 07:21:30;;;;;;;20.97;14.00;;;;;;;2.54;92.92;94272.13;5108103;27;20306;-87
2023/04/06 07:23:57;;;;;;;24.70;13.87;;;;;;;2.42;92.91;94266.66;5113443;27;20211;-85
2023/04/06 07:26:24;;;;;;;20.47;12.80;;;;;;;2.47;93.49;94268.66;5112995;28;20224;-86
2023/04/06 07:28:51;;;;;;;23.63;13.80;;;;;;;2.53;93.00;94265.41;5112499;27;20211;-85
2023/04/06 07:31:18;;;;;;;20.60;13.33;;;;;;;2.38;92.38;94274.88;5111418;28;20644;-85
2023/04/06 07:33:45;;;;;;;24.87;14.57;;;;;;;2.23;92.62;94257.72;5112617;28;20199;-86
2023/04/06 07:36:12;;;;;;;18.93;11.50;;;;;;;2.13;92.08;94257.19;5112706;28;20202;-86
2023/04/06 07:38:40;;;;;;;23.67;14.67;;;;;;;2.32;93.25;94276.38;5112661;28;20287;-87
2023/04/06 07:41:07;;;;;;;19.13;12.13;;;;;;;2.48;91.48;94260.00;5099477;28;20207;-86
2023/04/06 07:43:33;;;;;;;21.77;12.10;;;;;;;2.48;91.38;94258.22;5091912;28;20920;-85
2023/04/06 07:46:00;;;;;;;25.63;14.50;;;;;;;2.55;92.27;94240.38;5097860;28;20188;-85
2023/04/06 07:48:31;;;;;;;25.30;14.53;;;;;;;2.71;90.89;94247.88;5109256;27;20220;-80
2023/04/06 07:51:03;;;;;;;22.07;14.03;;;;;;;2.79;90.13;94242.63;5100478;28;20189;-79
2023/04/06 07:53:30;;;;;;;25.43;14.53;;;;;;;3.04;90.65;94264.41;5111146;28;20249;-80
2023/04/06 07:55:59;;;;;;;23.23;13.63;;;;;;;3.01;89.72;94251.13;5103827;28;20188;-80
2023/04/06 07:58:26;;;;;;;20.67;13.10;;;;;;;3.00;90.14;94254.69;5108200;28;20199;-79
2023/04/06 08:00:54;;;;;;;22.53;13.77;;;;;;;2.97;90.05;94258.44;5108509;28;20207;-80
2023/04/06 08:03:25;;;;;;;24.83;14.63;;;;;;;3.12;90.45;94266.06;5111560;28;20224;-79
2023/04/06 08:05:52;;;;;;;23.27;14.27;;;;;;;3.22;89.58;94254.53;5111165;28;20187;-80
2023/04/06 08:08:19;;;;;;;18.73;11.83;;;;;;;3.11;88.56;94237.06;5111382;28;20344;-80
2023/04/06 08:10:46;;;;;;;19.33;12.77;;;;;;;3.25;88.33;94263.63;5108895;28;20533;-81
2023/04/06 08:13:14;;;;;;;20.87;12.80;;;;;;;3.39;87.49;94260.22;5111084;28;20200;-81
2023/04/06 08:15:41;;;;;;;20.23;12.37;;;;;;;3.46;87.13;94262.84;5111562;28;20188;-80
2023/04/06 08:18:08;;;;;;;15.60;10.77;;;;;;;3.47;86.32;94265.22;5111325;28;20544;-81
2023/04/06 08:20:35;;;;;;;17.60;11.27;;;;;;;3.58;87.21;94269.84;5105925;28;20196;-81
2023/04/06 08:23:02;;;;;;;16.20;10.23;;;;;;;3.68;84.89;94269.56;5111291;28;20199;-80
2023/04/06 08:25:30;;;;;;;19.23;11.77;;;;;;;3.66;85.02;94277.47;5110850;28;20199;-81
2023/04/06 08:28:02;;;;;;;20.13;12.23;;;;;;;3.72;85.11;94256.13;5110318;28;20204;-82
2023/04/06 08:30:30;;;;;;;20.27;12.03;;;;;;;3.78;85.44;94267.47;5097458;28;20188;-79
2023/04/06 08:32:57;;;;;;;21.57;12.43;;;;;;;3.82;84.78;94264.34;5106402;28;20194;-79
2023/04/06 08:35:24;;;;;;;19.77;11.83;;;;;;;3.79;84.99;94261.34;5110399;28;20279;-81
2023/04/06 08:37:51;;;;;;;17.53;10.43;;;;;;;3.97;83.71;94271.97;5110090;28;20191;-81
2023/04/06 08:40:18;;;;;;;17.73;11.23;;;;;;;4.00;83.48;94274.94;5103834;28;20190;-80
2023/04/06 08:42:50;;;;;;;18.60;11.40;;;;;;;3.94;83.29;94265.41;5107431;28;20201;-80
2023/04/06 08:45:20;;;;;;;16.13;10.63;;;;;;;3.87;83.84;94274.84;5110616;28;20183;-79
2023/04/06 08:47:50;;;;;;;22.27;11.93;;;;;;;3.83;84.65;94272.84;5105003;28;20211;-79
2023/04/06 08:50:18;;;;;;;21.93;13.50;;;;;;;3.96;84.91;94272.94;5110117;28;20196;-79
2023/04/06 08:52:48;;;;;;;16.50;10.10;;;;;;;4.11;81.51;94277.97;5114519;28;20249;-80
2023/04/06 08:55:15;;;;;;;19.87;12.30;;;;;;;4.00;82.17;94287.00;5114968;28;20218;-82
2023/04/06 08:57:42;;;;;;;19.70;11.50;;;;;;;4.05;82.75;94268.44;5115540;28;20211;-82
2023/04/06 09:00:12;;;;;;;19.77;12.37;;;;;;;4.09;82.66;94275.59;5114460;28;20184;-82
2023/04/06 09:02:41;;;;;;;16.77;10.97;;;;;;;4.21;82.86;94271.53;5115405;28;20191;-80
2023/04/06 09:05:10;;;;;;;17.47;11.57;;;;;;;4.38;81.79;94270.25;5113485;28;20277;-79
2023/04/06 09:07:37;;;;;;;16.87;10.67;;;;;;;4.51;80.35;94264.38;5115329;28;20228;-83
2023/04/06 09:10:05;;;;;;;16.30;11.23;;;;;;;4.62;80.34;94276.69;5114145;28;20188;-82
2023/04/06 09:12:32;;;;;;;15.90;11.13;;;;;;;4.86;79.47;94268.50;5115104;28;20663;-81
2023/04/06 09:15:01;;;;;;;20.07;11.83;;;;;;;4.90;78.82;94261.19;5114750;28;20189;-81
2023/04/06 09:17:32;;;;;;;16.60;11.43;;;;;;;5.07;79.15;94265.00;5114846;28;20185;-80
2023/04/06 09:19:59;;;;;;;17.80;11.47;;;;;;;5.21;78.37;94258.09;5113598;28;20200;-80
2023/04/06 09:22:36;;;;;;;18.00;10.97;;;;;;;5.11;77.93;94261.03;5103299;28;20546;-80
2023/04/06 09:25:03;;;;;;;18.10;11.13;;;;;;;5.19;78.27;94265.22;5114335;28;20663;-82
2023/04/06 09:27:31;;;;;;;18.97;11.13;;;;;;;4.74;79.16;94256.34;5114637;28;20718;-82
2023/04/06 09:30:06;;;;;;;22.97;12.10;;;;;;;4.62;79.70;94263.06;5110984;28;20200;-79
2023/04/06 09:32:33;;;;;;;16.77;11.23;;;;;;;4.64;80.05;94267.03;5106830;28;20200;-81
2023/04/06 09:35:10;;;;;;;21.23;11.10;;;;;;;4.83;78.13;94265.50;5114460;28;20588;-80
2023/04/06 09:37:38;;;;;;;17.60;10.50;;;;;;;4.76;78.65;94259.56;5114780;28;20196;-80
2023/04/06 09:40:06;;;;;;;17.50;11.60;;;;;;;4.95;78.85;94263.97;5113342;28;20237;-81
2023/04/06 09:42:34;;;;;;;18.90;11.67;;;;;;;5.09;78.14;94255.28;5114431;28;20242;-80
2023/04/06 09:45:00;;;;;;;21.00;12.60;;;;;;;5.33;78.31;94264.28;5114264;28;20192;-81
2023/04/06 09:47:27;;;;;;;17.23;10.53;;;;;;;5.32;78.16;94258.31;5114455;28;20210;-80
2023/04/06 09:49:58;;;;;;;15.47;10.27;;;;;;;5.46;77.18;94261.72;5112111;27;20187;-80
2023/04/06 09:52:28;;;;;;;18.77;11.90;;;;;;;5.61;76.26;94262.31;5112923;28;20201;-80
2023/04/06 09:55:00;;;;;;;18.83;12.00;;;;;;;5.71;75.52;94244.69;5114092;28;20268;-80
2023/04/06 09:57:33;;;;;;;18.50;10.50;;;;;;;5.72;75.24;94254.81;5114340;28;20191;-79
2023/04/06 10:00:09;;;;;;;18.07;11.50;;;;;;;5.54;75.91;94246.84;5110240;28;20190;-80
2023/04/06 10:02:44;;;;;;;14.27;9.90;;;;;;;5.53;75.30;94260.75;5109818;28;20193;-79
2023/04/06 10:05:17;;;;;;;16.97;11.07;;;;;;;5.78;75.74;94255.00;5113277;28;20197;-80
2023/04/06 10:07:46;;;;;;;14.97;10.57;;;;;;;5.71;74.56;94258.34;5107963;28;20211;-81
2023/04/06 10:10:15;;;;;;;14.70;9.63;;;;;;;5.54;74.47;94251.22;5113096;28;20683;-81
2023/04/06 10:12:43;;;;;;;19.37;11.50;;;;;;;5.47;74.31;94258.16;5113921;28;20252;-80
2023/04/06 10:15:11;;;;;;;14.67;9.70;;;;;;;5.68;73.64;94253.59;5113201;27;20198;-80
2023/04/06 10:17:38;;;;;;;15.23;10.67;;;;;;;5.95;72.71;94258.78;5114336;28;20195;-81
2023/04/06 10:20:11;;;;;;;14.60;9.67;;;;;;;5.99;72.79;94250.47;5112602;28;20191;-80
2023/04/06 10:22:44;;;;;;;15.60;9.87;;;;;;;6.26;72.69;94267.50;5113797;28;20202;-81
2023/04/06 10:25:11;;;;;;;15.57;8.83;;;;;;;6.33;70.16;94252.00;5113908;28;20231;-81
2023/04/06 10:27:39;;;;;;;16.67;10.07;;;;;;;6.20;71.53;94255.38;5113141;28;20210;-82
2023/04/06 10:30:08;;;;;;;15.57;10.20;;;;;;;6.42;71.14;94245.63;5110145;28;20563;-81
2023/04/06 10:32:36;;;;;;;20.93;12.07;;;;;;;6.50;71.18;94240.25;5098198;28;20195;-80
2023/04/06 10:35:11;;;;;;;17.00;11.13;;;;;;;6.83;70.58;94242.72;5113420;28;20191;-81
2023/04/06 10:37:50;;;;;;;14.70;9.53;;;;;;;7.02;69.08;94247.00;5113215;28;20191;-81
2023/04/06 10:40:23;;;;;;;16.73;10.07;;;;;;;7.03;69.25;94242.63;5107934;28;20188;-82
2023/04/06 10:42:52;;;;;;;12.97;9.40;;;;;;;6.82;68.50;94249.69;5108286;28;20256;-81
2023/04/06 10:45:23;;;;;;;12.57;9.17;;;;;;;7.00;68.69;94245.63;5113174;28;20205;-80
2023/04/06 10:47:53;;;;;;;13.83;10.10;;;;;;;7.18;68.39;94235.41;5113087;28;20763;-81
2023/04/06 10:50:20;;;;;;;14.87;10.30;;;;;;;7.52;67.94;94229.03;5112698;28;20192;-78
2023/04/06 10:52:48;;;;;;;16.00;11.53;;;;;;;7.73;66.44;94234.66;5112970;28;20181;-83
2023/04/06 10:55:17;;;;;;;21.97;11.00;;;;;;;7.95;68.09;94242.84;5111188;28;20204;-81
2023/04/06 10:57:44;;;;;;;14.87;9.90;;;;;;;8.14;65.96;94251.44;5109786;28;20579;-83
2023/04/06 11:00:13;;;;;;;23.43;11.77;;;;;;;8.08;65.12;94241.94;5111319;28;20216;-83
2023/04/06 11:02:40;;;;;;;15.60;9.87;;;;;;;7.85;65.41;94250.28;5109523;28;20192;-82
2023/04/06 11:05:08;;;;;;;12.70;9.47;;;;;;;7.70;65.40;94242.84;5112623;28;20244;-80
2023/04/06 11:07:35;;;;;;;21.43;11.17;;;;;;;7.67;65.71;94237.28;5112762;28;20223;-80
2023/04/06 11:10:03;;;;;;;13.80;9.90;;;;;;;7.53;65.36;94243.56;5111507;28;20192;-81
2023/04/06 11:12:30;;;;;;;15.93;11.10;;;;;;;7.44;66.94;94225.69;5106834;28;20219;-80
2023/04/06 11:15:02;;;;;;;17.67;11.23;;;;;;;7.49;67.42;94217.31;5112206;28;20192;-79
2023/04/06 11:17:31;;;;;;;15.07;10.33;;;;;;;7.68;67.78;94226.72;5112529;28;20261;-80
2023/04/06 11:19:59;;;;;;;16.37;10.47;;;;;;;7.37;66.73;94209.44;5112003;28;20253;-82
2023/04/06 11:22:26;;;;;;;13.10;9.90;;;;;;;7.15;67.63;94226.28;5113301;28;20654;-78
2023/04/06 11:24:53;;;;;;;15.67;10.53;;;;;;;7.09;67.26;94214.19;5113676;28;20192;-79
2023/04/06 11:27:21;;;;;;;15.50;9.97;;;;;;;7.03;67.18;94207.28;5111635;28;20181;-80
2023/04/06 11:29:49;;;;;;;17.23;10.47;;;;;;;7.11;66.98;94209.59;5113196;28;20192;-83
2023/04/06 11:32:23;;;;;;;13.50;9.53;;;;;;;7.21;66.35;94207.38;5111639;28;20197;-82